createdAt,value
2023-03-10T00:01:18.693Z,20.23
2023-03-10T00:03:45.833Z,20.80
2023-03-10T00:06:15.030Z,24.33
2023-03-10T00:08:42.523Z,22.80
2023-03-10T00:11:09.192Z,19.73
2023-03-10T00:13:35.775Z,20.23
2023-03-10T00:16:02.409Z,23.70
2023-03-10T00:18:29.693Z,22.70
2023-03-10T00:20:56.663Z,20.80
2023-03-10T00:23:23.530Z,22.07
2023-03-10T00:26:00.754Z,25.50
2023-03-10T00:28:28.182Z,21.27
2023-03-10T00:31:04.365Z,14.13
2023-03-10T00:33:33.019Z,20.87
2023-03-10T00:36:16.044Z,18.80
2023-03-10T00:38:44.479Z,24.07
2023-03-10T00:41:14.348Z,16.60
2023-03-10T00:43:41.217Z,24.37
2023-03-10T00:46:07.841Z,19.77
2023-03-10T00:48:35.278Z,21.27
2023-03-10T00:51:01.955Z,22.87
2023-03-10T00:53:28.772Z,18.27
2023-03-10T00:56:04.158Z,16.60
2023-03-10T00:58:31.705Z,19.23
2023-03-10T01:00:59.037Z,16.83
2023-03-10T01:03:26.728Z,10.83
2023-03-10T01:05:53.863Z,16.40
2023-03-10T01:08:21.051Z,15.90
2023-03-10T01:10:48.198Z,15.60
2023-03-10T01:13:15.564Z,24.80
2023-03-10T01:15:44.470Z,14.13
2023-03-10T01:18:11.095Z,17.10
2023-03-10T01:20:37.611Z,17.07
2023-03-10T01:23:04.102Z,15.63
2023-03-10T01:25:30.856Z,13.43
2023-03-10T01:27:57.673Z,16.33
2023-03-10T01:30:24.142Z,15.70
2023-03-10T01:32:50.929Z,13.23
2023-03-10T01:35:17.710Z,13.73
2023-03-10T01:37:44.650Z,12.90
2023-03-10T01:40:16.326Z,21.20
2023-03-10T01:42:43.454Z,12.77
2023-03-10T01:45:30.071Z,13.73
2023-03-10T01:47:57.001Z,14.20
2023-03-10T01:50:23.961Z,17.50
2023-03-10T01:52:56.645Z,12.20
2023-03-10T01:55:46.652Z,11.03
2023-03-10T01:58:13.825Z,15.70
2023-03-10T02:00:40.714Z,13.33
2023-03-10T02:03:19.573Z,15.63
2023-03-10T02:05:49.192Z,10.43
2023-03-10T02:08:16.902Z,9.93
2023-03-10T02:10:43.435Z,12.13
2023-03-10T02:13:10.492Z,14.93
2023-03-10T02:15:37.437Z,10.13
2023-03-10T02:18:05.844Z,11.30
2023-03-10T02:20:45.530Z,17.30
2023-03-10T02:23:16.351Z,14.47
2023-03-10T02:25:48.496Z,13.87
2023-03-10T02:28:15.244Z,11.20
2023-03-10T02:30:47.131Z,11.63
2023-03-10T02:33:29.283Z,16.90
2023-03-10T02:36:03.316Z,12.30
2023-03-10T02:38:29.932Z,10.90
2023-03-10T02:40:57.413Z,12.10
2023-03-10T02:43:32.845Z,12.90
2023-03-10T02:46:03.059Z,9.60
2023-03-10T02:48:32.439Z,10.33
2023-03-10T02:51:00.511Z,8.37
2023-03-10T02:53:28.568Z,8.57
2023-03-10T02:55:56.000Z,8.90
2023-03-10T02:58:24.151Z,11.47
2023-03-10T03:00:51.541Z,10.00
2023-03-10T03:03:20.764Z,11.93
2023-03-10T03:05:47.691Z,11.33
2023-03-10T03:08:14.742Z,11.33
2023-03-10T03:10:41.730Z,8.53
2023-03-10T03:13:08.758Z,7.60
2023-03-10T03:15:35.614Z,10.33
2023-03-10T03:18:03.262Z,15.70
2023-03-10T03:20:31.278Z,5.93
2023-03-10T03:22:58.449Z,8.03
2023-03-10T03:25:26.361Z,7.40
2023-03-10T03:27:53.130Z,9.37
2023-03-10T03:30:22.777Z,10.53
2023-03-10T03:32:50.037Z,9.60
2023-03-10T03:35:19.699Z,9.23
2023-03-10T03:37:46.321Z,8.33
2023-03-10T03:40:13.892Z,7.33
2023-03-10T03:42:45.463Z,7.63
2023-03-10T03:45:13.544Z,7.77
2023-03-10T03:47:40.177Z,11.03
2023-03-10T03:50:08.425Z,6.90
2023-03-10T03:52:34.957Z,4.90
2023-03-10T03:55:02.201Z,7.37
2023-03-10T03:57:29.037Z,9.63
2023-03-10T03:59:55.620Z,7.70
2023-03-10T04:02:22.241Z,9.40
2023-03-10T04:04:48.840Z,7.73
2023-03-10T04:07:16.585Z,6.37
2023-03-10T04:09:43.239Z,7.47
2023-03-10T04:12:10.435Z,9.03
2023-03-10T04:14:38.004Z,6.83
2023-03-10T04:17:05.231Z,8.63
2023-03-10T04:19:31.898Z,7.23
2023-03-10T04:21:58.424Z,6.83
2023-03-10T04:24:24.932Z,7.93
2023-03-10T04:26:51.422Z,10.53
2023-03-10T04:29:18.782Z,11.37
2023-03-10T04:31:55.833Z,11.83
2023-03-10T04:34:30.022Z,9.27
2023-03-10T04:36:56.491Z,7.83
2023-03-10T04:39:23.149Z,10.67
2023-03-10T04:41:49.774Z,15.17
2023-03-10T04:44:29.940Z,10.73
2023-03-10T04:46:58.017Z,7.83
2023-03-10T04:49:24.692Z,11.87
2023-03-10T04:51:51.217Z,9.67
2023-03-10T04:54:17.823Z,12.43
2023-03-10T04:56:44.309Z,8.77
2023-03-10T04:59:10.833Z,9.70
2023-03-10T05:01:37.392Z,6.97
2023-03-10T05:04:05.678Z,10.73
2023-03-10T05:06:32.318Z,8.83
2023-03-10T05:09:00.941Z,9.53
2023-03-10T05:11:27.689Z,5.07
2023-03-10T05:13:54.228Z,4.87
2023-03-10T05:16:22.388Z,4.43
2023-03-10T05:18:48.934Z,3.70
2023-03-10T05:21:15.657Z,4.53
2023-03-10T05:23:42.305Z,8.10
2023-03-10T05:26:10.834Z,6.40
2023-03-10T05:28:37.800Z,5.47
2023-03-10T05:31:13.134Z,7.93
2023-03-10T05:33:40.070Z,8.13
2023-03-10T05:36:11.832Z,6.97
2023-03-10T05:38:38.536Z,5.87
2023-03-10T05:41:09.480Z,5.37
2023-03-10T05:43:37.113Z,5.17
2023-03-10T05:46:04.469Z,6.20
2023-03-10T05:48:31.536Z,4.87
2023-03-10T05:51:03.623Z,3.63
2023-03-10T05:53:32.015Z,3.13
2023-03-10T05:55:58.820Z,5.03
2023-03-10T05:58:26.210Z,5.23
2023-03-10T06:00:53.337Z,3.53
2023-03-10T06:03:20.261Z,3.73
2023-03-10T06:05:47.059Z,4.03
2023-03-10T06:08:13.604Z,2.80
2023-03-10T06:10:40.494Z,2.87
2023-03-10T06:13:07.033Z,4.23
2023-03-10T06:15:33.671Z,8.50
2023-03-10T06:18:00.354Z,9.87
2023-03-10T06:20:27.000Z,5.40
2023-03-10T06:22:53.997Z,5.83
2023-03-10T06:25:21.024Z,6.53
2023-03-10T06:27:47.625Z,5.37
2023-03-10T06:30:15.396Z,5.27
2023-03-10T06:32:41.997Z,5.33
2023-03-10T06:35:12.463Z,51.67
2023-03-10T06:37:39.426Z,66.93
2023-03-10T06:40:08.163Z,4.63
2023-03-10T06:42:34.740Z,4.63
2023-03-10T06:45:01.370Z,3.03
2023-03-10T06:47:28.125Z,3.10
2023-03-10T06:49:55.043Z,2.70
2023-03-10T06:52:21.742Z,6.43
2023-03-10T06:54:48.168Z,2.80
2023-03-10T06:57:34.913Z,2.47
2023-03-10T07:00:22.280Z,3.07
2023-03-10T07:02:48.714Z,2.73
2023-03-10T07:05:15.420Z,2.23
2023-03-10T07:07:42.311Z,2.60
2023-03-10T07:10:09.516Z,2.13
2023-03-10T07:12:36.093Z,3.13
2023-03-10T07:15:03.126Z,2.37
2023-03-10T07:17:29.658Z,2.07
2023-03-10T07:19:56.142Z,1.83
2023-03-10T07:22:23.545Z,4.47
2023-03-10T07:24:54.156Z,1.63
2023-03-10T07:27:20.674Z,3.13
2023-03-10T07:29:47.309Z,2.80
2023-03-10T07:32:15.599Z,3.00
2023-03-10T07:34:42.236Z,1.47
2023-03-10T07:37:09.526Z,3.27
2023-03-10T07:39:36.151Z,2.40
2023-03-10T07:42:02.787Z,3.83
2023-03-10T07:44:29.594Z,2.07
2023-03-10T07:46:56.138Z,4.30
2023-03-10T07:49:23.221Z,4.67
2023-03-10T07:51:49.766Z,2.67
2023-03-10T07:54:16.367Z,6.40
2023-03-10T07:56:42.827Z,4.87
2023-03-10T07:59:09.349Z,7.07
2023-03-10T08:01:35.983Z,6.83
2023-03-10T08:04:02.657Z,3.37
2023-03-10T08:06:29.263Z,2.70
2023-03-10T08:08:55.757Z,2.33
2023-03-10T08:11:23.110Z,2.70
2023-03-10T08:13:49.615Z,1.73
2023-03-10T08:16:18.202Z,2.27
2023-03-10T08:18:45.040Z,1.90
2023-03-10T08:21:12.008Z,2.10
2023-03-10T08:23:39.364Z,3.43
2023-03-10T08:26:08.644Z,2.07
2023-03-10T08:28:37.552Z,1.13
2023-03-10T08:31:15.793Z,1.57
2023-03-10T08:33:42.970Z,1.67
2023-03-10T08:36:13.340Z,1.63
2023-03-10T08:38:41.051Z,1.57
2023-03-10T08:41:19.742Z,1.30
2023-03-10T08:43:48.981Z,2.37
2023-03-10T08:46:16.895Z,1.97
2023-03-10T08:48:43.495Z,1.70
2023-03-10T08:51:10.288Z,2.53
2023-03-10T08:53:37.946Z,2.03
2023-03-10T08:56:05.331Z,2.37
2023-03-10T08:58:32.013Z,1.73
2023-03-10T09:00:58.696Z,1.42
2023-03-10T09:03:25.863Z,3.13
2023-03-10T09:05:52.503Z,2.05
2023-03-10T09:08:19.060Z,2.33
2023-03-10T09:10:45.634Z,1.35
2023-03-10T09:13:14.386Z,1.45
2023-03-10T09:15:41.535Z,1.90
2023-03-10T09:18:12.986Z,1.17
2023-03-10T09:20:41.005Z,2.72
2023-03-10T09:23:09.254Z,2.00
2023-03-10T09:25:35.765Z,2.22
2023-03-10T09:28:02.436Z,2.30
2023-03-10T09:30:29.020Z,3.28
2023-03-10T09:32:56.300Z,3.03
2023-03-10T09:35:23.009Z,3.05
2023-03-10T09:37:49.709Z,2.10
2023-03-10T09:40:19.539Z,3.30
2023-03-10T09:43:04.117Z,3.67
2023-03-10T09:45:57.411Z,3.15
2023-03-10T09:48:59.135Z,1.70
2023-03-10T09:51:27.810Z,3.10
2023-03-10T09:54:19.230Z,4.20
2023-03-10T09:56:45.780Z,2.95
2023-03-10T09:59:22.711Z,3.50
2023-03-10T10:01:50.889Z,3.03
2023-03-10T10:04:21.791Z,4.70
2023-03-10T10:06:49.368Z,5.63
2023-03-10T10:09:42.059Z,1.60
2023-03-10T10:12:17.130Z,3.55
2023-03-10T10:14:56.806Z,3.22
2023-03-10T10:17:53.727Z,3.35
2023-03-10T10:20:27.744Z,2.15
2023-03-10T10:22:54.390Z,2.60
2023-03-10T10:25:23.718Z,3.90
2023-03-10T10:27:55.673Z,2.25
2023-03-10T10:30:38.286Z,3.60
2023-03-10T10:33:07.185Z,2.78
2023-03-10T10:35:39.347Z,2.97
2023-03-10T10:38:13.343Z,2.95
2023-03-10T10:40:50.044Z,2.65
2023-03-10T10:43:21.063Z,4.35
2023-03-10T10:46:04.107Z,2.85
2023-03-10T10:48:43.062Z,2.78
2023-03-10T10:51:31.196Z,2.65
2023-03-10T10:54:06.227Z,2.58
2023-03-10T10:56:33.147Z,2.58
2023-03-10T10:59:19.434Z,1.92
2023-03-10T11:01:54.624Z,5.22
2023-03-10T11:04:23.121Z,4.05
2023-03-10T11:06:50.376Z,2.30
2023-03-10T11:09:19.381Z,2.45
2023-03-10T11:12:04.031Z,2.13
2023-03-10T11:15:01.904Z,2.55
2023-03-10T11:17:38.474Z,3.80
2023-03-10T11:20:26.810Z,1.98
2023-03-10T11:23:19.336Z,2.90
2023-03-10T11:25:53.236Z,2.80
2023-03-10T11:28:19.678Z,2.78
2023-03-10T11:30:58.672Z,4.07
2023-03-10T11:33:54.585Z,2.60
2023-03-10T11:36:56.239Z,3.42
2023-03-10T11:39:39.163Z,2.97
2023-03-10T11:42:25.203Z,2.85
2023-03-10T11:45:18.813Z,2.40
2023-03-10T11:47:48.527Z,4.97
2023-03-10T11:50:30.473Z,2.70
2023-03-10T11:53:03.753Z,2.90
2023-03-10T11:55:30.545Z,2.10
2023-03-10T11:58:00.022Z,3.40
2023-03-10T12:00:41.046Z,3.28
2023-03-10T12:03:29.756Z,4.25
2023-03-10T12:05:59.243Z,4.07
2023-03-10T12:08:33.513Z,3.03
2023-03-10T12:11:01.863Z,2.72
2023-03-10T12:13:40.418Z,2.13
2023-03-10T12:16:07.218Z,3.55
2023-03-10T12:18:33.886Z,1.98
2023-03-10T12:21:17.436Z,1.83
2023-03-10T12:23:46.834Z,2.35
2023-03-10T12:26:14.081Z,3.05
2023-03-10T12:28:41.063Z,4.88
2023-03-10T12:31:10.671Z,4.35
2023-03-10T12:33:42.375Z,2.20
2023-03-10T12:36:33.783Z,4.50
2023-03-10T12:39:28.026Z,3.33
2023-03-10T12:41:56.437Z,6.20
2023-03-10T12:44:30.920Z,5.40
2023-03-10T12:47:18.962Z,2.97
2023-03-10T12:50:16.570Z,3.07
2023-03-10T12:52:47.777Z,3.23
2023-03-10T12:55:27.827Z,2.97
2023-03-10T12:58:05.982Z,6.53
2023-03-10T13:00:46.235Z,3.40
2023-03-10T13:03:21.935Z,2.70
2023-03-10T13:06:18.686Z,3.90
2023-03-10T13:08:48.952Z,3.30
2023-03-10T13:11:18.515Z,3.60
2023-03-10T13:13:47.891Z,3.43
2023-03-10T13:16:19.141Z,6.30
2023-03-10T13:18:51.152Z,2.22
2023-03-10T13:21:38.252Z,3.67
2023-03-10T13:24:24.348Z,3.67
2023-03-10T13:27:07.895Z,5.10
2023-03-10T13:29:35.008Z,3.72
2023-03-10T13:32:02.042Z,7.13
2023-03-10T13:34:30.615Z,3.22
2023-03-10T13:37:05.839Z,2.75
2023-03-10T13:39:32.586Z,5.93
2023-03-10T13:42:01.027Z,5.32
2023-03-10T13:44:37.692Z,2.95
2023-03-10T13:47:15.011Z,4.32
2023-03-10T13:49:46.777Z,3.88
2023-03-10T13:52:18.826Z,2.90
2023-03-10T13:54:45.570Z,4.22
2023-03-10T13:57:17.230Z,3.38
2023-03-10T13:59:43.822Z,4.03
2023-03-10T14:02:35.680Z,4.30
2023-03-10T14:05:02.316Z,3.25
2023-03-10T14:07:34.904Z,3.85
2023-03-10T14:10:04.412Z,4.15
2023-03-10T14:12:45.676Z,4.53
2023-03-10T14:15:31.510Z,4.15
2023-03-10T14:18:07.732Z,4.63
2023-03-10T14:20:44.516Z,3.80
2023-03-10T14:23:35.860Z,5.15
2023-03-10T14:26:08.132Z,4.82
2023-03-10T14:28:34.574Z,11.18
2023-03-10T14:31:02.644Z,6.38
2023-03-10T14:33:29.613Z,4.57
2023-03-10T14:35:56.753Z,3.07
2023-03-10T14:38:23.154Z,8.03
2023-03-10T14:40:52.330Z,3.57
2023-03-10T14:43:21.197Z,5.83
2023-03-10T14:45:48.956Z,2.13
2023-03-10T14:48:18.291Z,3.30
2023-03-10T14:50:46.372Z,4.13
2023-03-10T14:53:14.958Z,3.27
2023-03-10T14:55:43.783Z,2.93
2023-03-10T14:58:20.630Z,4.07
2023-03-10T15:00:47.773Z,6.40
2023-03-10T15:03:15.173Z,6.23
2023-03-10T15:05:48.612Z,5.37
2023-03-10T15:08:17.212Z,2.67
2023-03-10T15:10:48.249Z,6.37
2023-03-10T15:13:15.337Z,5.73
2023-03-10T15:15:44.170Z,4.60
2023-03-10T15:18:13.113Z,7.13
2023-03-10T15:20:39.773Z,5.43
2023-03-10T15:23:06.363Z,6.60
2023-03-10T15:25:32.916Z,3.73
2023-03-10T15:27:59.463Z,5.33
2023-03-10T15:30:28.768Z,3.17
2023-03-10T15:32:55.315Z,2.00
2023-03-10T15:35:22.772Z,2.30
2023-03-10T15:37:50.618Z,1.10
2023-03-10T15:40:19.908Z,2.40
2023-03-10T15:42:47.099Z,2.37
2023-03-10T15:45:14.856Z,3.60
2023-03-10T15:47:41.805Z,4.50
2023-03-10T15:50:09.513Z,1.83
2023-03-10T15:52:36.313Z,1.20
2023-03-10T15:55:02.871Z,4.20
2023-03-10T15:57:29.967Z,1.27
2023-03-10T15:59:56.488Z,1.40
2023-03-10T16:02:23.073Z,3.37
2023-03-10T16:04:49.577Z,3.17
2023-03-10T16:07:16.113Z,3.43
2023-03-10T16:09:42.600Z,2.03
2023-03-10T16:12:09.071Z,2.70
2023-03-10T16:14:35.689Z,2.03
2023-03-10T16:17:02.237Z,2.07
2023-03-10T16:19:28.760Z,3.80
2023-03-10T16:21:55.297Z,2.47
2023-03-10T16:24:22.379Z,2.93
2023-03-10T16:26:48.997Z,2.87
2023-03-10T16:29:15.798Z,2.50
2023-03-10T16:31:43.100Z,1.73
2023-03-10T16:34:09.737Z,3.30
2023-03-10T16:36:36.785Z,2.47
2023-03-10T16:39:08.087Z,3.33
2023-03-10T16:41:34.616Z,1.70
2023-03-10T16:44:11.405Z,2.10
2023-03-10T16:46:38.322Z,2.53
2023-03-10T16:49:05.225Z,3.10
2023-03-10T16:51:35.594Z,1.60
2023-03-10T16:54:03.421Z,2.00
2023-03-10T16:56:31.205Z,2.40
2023-03-10T16:58:58.382Z,1.73
2023-03-10T17:01:25.710Z,1.67
2023-03-10T17:03:53.389Z,1.77
2023-03-10T17:06:31.810Z,1.73
2023-03-10T17:08:58.863Z,2.50
2023-03-10T17:11:31.270Z,5.67
2023-03-10T17:14:00.124Z,2.70
2023-03-10T17:16:28.854Z,3.10
2023-03-10T17:18:56.658Z,1.93
2023-03-10T17:21:26.045Z,1.60
2023-03-10T17:23:52.486Z,1.80
2023-03-10T17:26:20.038Z,0.93
2023-03-10T17:28:48.766Z,1.50
2023-03-10T17:31:20.395Z,1.20
2023-03-10T17:33:47.310Z,1.40
2023-03-10T17:36:16.222Z,1.20
2023-03-10T17:38:43.346Z,1.03
2023-03-10T17:41:12.158Z,1.57
2023-03-10T17:43:39.401Z,1.73
2023-03-10T17:46:35.407Z,2.03
2023-03-10T17:49:02.375Z,1.50
2023-03-10T17:51:30.848Z,1.27
2023-03-10T17:53:59.197Z,1.50
2023-03-10T17:56:26.323Z,2.00
2023-03-10T17:58:56.986Z,1.97
2023-03-10T18:01:27.341Z,2.47
2023-03-10T18:03:58.335Z,1.77
2023-03-10T18:06:27.673Z,1.50
2023-03-10T18:08:56.439Z,1.50
2023-03-10T18:11:23.809Z,1.97
2023-03-10T18:13:50.402Z,2.40
2023-03-10T18:16:22.935Z,2.13
2023-03-10T18:18:49.658Z,2.03
2023-03-10T18:21:17.660Z,1.17
2023-03-10T18:23:44.606Z,1.50
2023-03-10T18:26:17.013Z,1.50
2023-03-10T18:28:43.612Z,1.83
2023-03-10T18:31:16.844Z,2.30
2023-03-10T18:33:43.653Z,2.27
2023-03-10T18:36:13.582Z,2.07
2023-03-10T18:38:40.964Z,3.07
2023-03-10T18:41:07.948Z,2.67
2023-03-10T18:43:34.561Z,3.57
2023-03-10T18:46:01.963Z,2.70
2023-03-10T18:48:28.787Z,3.20
2023-03-10T18:50:56.225Z,2.03
2023-03-10T18:53:23.170Z,1.60
2023-03-10T18:55:49.716Z,2.10
2023-03-10T18:58:16.673Z,1.90
2023-03-10T19:00:43.206Z,1.63
2023-03-10T19:03:13.122Z,1.40
2023-03-10T19:05:40.851Z,2.53
2023-03-10T19:08:07.766Z,2.30
2023-03-10T19:10:34.249Z,1.70
2023-03-10T19:13:01.882Z,2.10
2023-03-10T19:15:28.882Z,2.00
2023-03-10T19:17:55.562Z,2.10
2023-03-10T19:20:22.300Z,1.93
2023-03-10T19:22:52.213Z,1.83
2023-03-10T19:25:19.252Z,1.77
2023-03-10T19:27:46.143Z,2.10
2023-03-10T19:30:16.271Z,2.70
2023-03-10T19:32:44.134Z,2.20
2023-03-10T19:35:10.984Z,2.53
2023-03-10T19:37:38.553Z,2.13
2023-03-10T19:40:08.390Z,1.80
2023-03-10T19:42:35.751Z,3.33
2023-03-10T19:45:02.566Z,2.30
2023-03-10T19:47:31.980Z,1.73
2023-03-10T19:49:58.634Z,1.40
2023-03-10T19:52:25.458Z,4.87
2023-03-10T19:54:52.055Z,1.20
2023-03-10T19:57:18.599Z,1.20
2023-03-10T19:59:45.102Z,0.80
2023-03-10T20:02:13.581Z,0.93
2023-03-10T20:04:40.251Z,1.00
2023-03-10T20:07:06.851Z,1.33
2023-03-10T20:09:33.724Z,1.07
2023-03-10T20:12:00.366Z,1.13
2023-03-10T20:14:27.318Z,1.00
2023-03-10T20:16:54.010Z,0.90
2023-03-10T20:19:22.748Z,1.90
2023-03-10T20:21:50.462Z,3.40
2023-03-10T20:24:17.480Z,1.20
2023-03-10T20:26:44.095Z,1.20
2023-03-10T20:29:11.408Z,1.27
2023-03-10T20:31:38.042Z,1.77
2023-03-10T20:34:06.932Z,1.53
2023-03-10T20:36:34.223Z,1.00
2023-03-10T20:39:00.921Z,3.57
2023-03-10T20:41:27.722Z,1.03
2023-03-10T20:43:55.298Z,1.33
2023-03-10T20:46:22.925Z,1.63
2023-03-10T20:48:50.678Z,1.03
2023-03-10T20:51:19.176Z,0.93
2023-03-10T20:53:46.023Z,2.10
2023-03-10T20:56:14.240Z,0.70
2023-03-10T20:58:41.032Z,0.90
2023-03-10T21:01:15.121Z,0.80
2023-03-10T21:03:41.799Z,1.20
2023-03-10T21:06:08.307Z,1.13
2023-03-10T21:08:34.993Z,1.10
2023-03-10T21:11:01.841Z,0.70
2023-03-10T21:13:28.405Z,1.63
2023-03-10T21:15:55.088Z,1.23
2023-03-10T21:18:21.601Z,0.80
2023-03-10T21:20:48.148Z,0.93
2023-03-10T21:23:14.723Z,0.80
2023-03-10T21:25:42.331Z,1.73
2023-03-10T21:28:09.017Z,1.10
2023-03-10T21:30:35.578Z,0.80
2023-03-10T21:33:02.160Z,1.57
2023-03-10T21:35:31.835Z,1.13
2023-03-10T21:37:59.334Z,1.10
2023-03-10T21:40:26.604Z,1.20
2023-03-10T21:42:54.290Z,2.47
2023-03-10T21:45:22.476Z,2.40
2023-03-10T21:47:49.214Z,1.10
2023-03-10T21:50:17.694Z,1.43
2023-03-10T21:52:44.973Z,1.50
2023-03-10T21:55:18.690Z,1.50
2023-03-10T21:57:45.336Z,1.47
2023-03-10T22:00:13.042Z,2.00
2023-03-10T22:02:39.730Z,1.50
2023-03-10T22:05:06.657Z,1.30
2023-03-10T22:07:33.649Z,2.10
2023-03-10T22:10:00.419Z,1.60
2023-03-10T22:12:27.093Z,1.43
2023-03-10T22:14:56.366Z,1.37
2023-03-10T22:17:26.766Z,2.13
2023-03-10T22:19:54.841Z,1.30
2023-03-10T22:22:22.290Z,1.50
2023-03-10T22:24:49.547Z,2.17
2023-03-10T22:27:16.608Z,2.17
2023-03-10T22:29:43.177Z,2.10
2023-03-10T22:32:09.674Z,2.10
2023-03-10T22:34:36.252Z,1.70
2023-03-10T22:37:02.903Z,2.20
2023-03-10T22:39:29.409Z,1.60
2023-03-10T22:41:55.934Z,1.90
2023-03-10T22:44:22.987Z,1.67
2023-03-10T22:46:49.613Z,2.13
2023-03-10T22:49:16.228Z,2.20
2023-03-10T22:51:42.765Z,1.70
2023-03-10T22:54:09.161Z,2.27
2023-03-10T22:56:36.117Z,2.03
2023-03-10T22:59:04.406Z,2.17
2023-03-10T23:01:31.338Z,2.10
2023-03-10T23:03:57.981Z,1.70
2023-03-10T23:06:28.601Z,1.57
2023-03-10T23:08:56.365Z,1.97
2023-03-10T23:11:23.374Z,2.03
2023-03-10T23:13:50.088Z,1.63
2023-03-10T23:16:18.201Z,1.63
2023-03-10T23:18:44.703Z,2.10
2023-03-10T23:21:11.615Z,2.20
2023-03-10T23:23:39.257Z,1.67
2023-03-10T23:26:06.123Z,2.20
2023-03-10T23:28:33.259Z,2.33
2023-03-10T23:31:00.539Z,1.90
2023-03-10T23:33:28.216Z,2.63
2023-03-10T23:35:55.438Z,1.80
2023-03-10T23:38:27.005Z,2.03
2023-03-10T23:40:55.403Z,3.53
2023-03-10T23:43:22.321Z,1.97
2023-03-10T23:45:50.111Z,1.50
2023-03-10T23:48:18.165Z,1.50
2023-03-10T23:50:46.581Z,1.47
2023-03-10T23:53:15.149Z,2.37
2023-03-10T23:55:43.861Z,3.20
2023-03-10T23:58:11.019Z,1.43
